sensor_id;sensor_type;location;lat;lon;timestamp;pressure;altitude;pressure_sealevel;temperature;humidity
66021;BME280;52789;59.980;30.346;2022-09-27T00:00:43;101065.06;;;9.84;98.54
66021;BME280;52789;59.980;30.346;2022-09-27T00:03:10;101063.66;;;9.80;98.34
66021;BME280;52789;59.980;30.346;2022-09-27T00:05:36;101070.38;;;9.84;98.17
66021;BME280;52789;59.980;30.346;2022-09-27T00:08:01;101071.06;;;9.86;98.44
66021;BME280;52789;59.980;30.346;2022-09-27T00:10:27;101041.75;;;9.68;97.96
66021;BME280;52789;59.980;30.346;2022-09-27T00:12:53;101076.91;;;9.89;98.67
66021;BME280;52789;59.980;30.346;2022-09-27T00:15:19;101071.44;;;9.91;98.52
66021;BME280;52789;59.980;30.346;2022-09-27T00:17:45;101066.13;;;9.91;98.30
66021;BME280;52789;59.980;30.346;2022-09-27T00:20:11;101057.44;;;9.89;98.26
66021;BME280;52789;59.980;30.346;2022-09-27T00:22:37;101030.13;;;9.69;98.02
66021;BME280;52789;59.980;30.346;2022-09-27T00:25:03;101065.44;;;9.89;98.43
66021;BME280;52789;59.980;30.346;2022-09-27T00:27:31;101064.13;;;9.93;98.32
66021;BME280;52789;59.980;30.346;2022-09-27T00:29:57;101067.78;;;9.92;98.80
66021;BME280;52789;59.980;30.346;2022-09-27T00:32:22;101070.06;;;9.87;98.26
66021;BME280;52789;59.980;30.346;2022-09-27T00:34:48;101064.75;;;9.87;99.64
66021;BME280;52789;59.980;30.346;2022-09-27T00:37:13;101062.47;;;9.92;99.73
66021;BME280;52789;59.980;30.346;2022-09-27T00:39:39;101070.00;;;9.97;99.38
66021;BME280;52789;59.980;30.346;2022-09-27T00:42:05;101066.50;;;9.96;99.37
66021;BME280;52789;59.980;30.346;2022-09-27T00:50:23;101066.41;;;9.88;99.92
66021;BME280;52789;59.980;30.346;2022-09-27T00:55:26;101069.47;;;9.93;100.00
66021;BME280;52789;59.980;30.346;2022-09-27T00:57:53;101061.63;;;9.91;100.00
66021;BME280;52789;59.980;30.346;2022-09-27T01:00:21;101061.47;;;9.93;100.00
66021;BME280;52789;59.980;30.346;2022-09-27T01:02:50;101068.47;;;9.94;100.00
66021;BME280;52789;59.980;30.346;2022-09-27T01:05:19;101069.16;;;9.96;100.00
66021;BME280;52789;59.980;30.346;2022-09-27T01:07:46;101057.16;;;9.92;100.00
66021;BME280;52789;59.980;30.346;2022-09-27T01:10:13;101057.16;;;9.92;100.00
66021;BME280;52789;59.980;30.346;2022-09-27T01:15:12;101054.88;;;9.97;100.00
66021;BME280;52789;59.980;30.346;2022-09-27T01:34:49;101052.19;;;9.97;100.00
66021;BME280;52789;59.980;30.346;2022-09-27T01:40:35;101061.03;;;9.98;100.00
66021;BME280;52789;59.980;30.346;2022-09-27T01:45:53;101048.78;;;9.87;100.00
66021;BME280;52789;59.980;30.346;2022-09-27T01:48:29;101067.47;;;9.95;100.00
66021;BME280;52789;59.980;30.346;2022-09-27T01:51:05;101061.47;;;9.93;100.00
66021;BME280;52789;59.980;30.346;2022-09-27T01:53:37;101053.56;;;9.83;100.00
66021;BME280;52789;59.980;30.346;2022-09-27T01:56:08;101066.72;;;9.85;100.00
66021;BME280;52789;59.980;30.346;2022-09-27T01:58:43;101059.47;;;9.77;100.00
66021;BME280;52789;59.980;30.346;2022-09-27T02:01:12;101060.31;;;9.78;100.00
66021;BME280;52789;59.980;30.346;2022-09-27T02:03:47;101061.69;;;9.82;100.00
66021;BME280;52789;59.980;30.346;2022-09-27T02:06:21;101068.56;;;9.84;100.00
66021;BME280;52789;59.980;30.346;2022-09-27T02:09:11;101049.66;;;9.78;100.00
66021;BME280;52789;59.980;30.346;2022-09-27T02:11:41;101067.31;;;9.79;100.00
66021;BME280;52789;59.980;30.346;2022-09-27T02:14:14;101061.97;;;9.79;100.00
66021;BME280;52789;59.980;30.346;2022-09-27T02:30:24;101057.19;;;9.65;100.00
66021;BME280;52789;59.980;30.346;2022-09-27T02:32:51;101069.88;;;9.71;100.00
66021;BME280;52789;59.980;30.346;2022-09-27T02:35:28;101058.41;;;9.70;100.00
66021;BME280;52789;59.980;30.346;2022-09-27T02:37:56;101064.88;;;9.68;100.00
66021;BME280;52789;59.980;30.346;2022-09-27T02:40:23;101066.53;;;9.69;100.00
66021;BME280;52789;59.980;30.346;2022-09-27T02:42:51;101063.34;;;9.65;100.00
66021;BME280;52789;59.980;30.346;2022-09-27T02:45:18;101064.88;;;9.68;100.00
66021;BME280;52789;59.980;30.346;2022-09-27T02:48:03;101066.22;;;9.72;100.00
66021;BME280;52789;59.980;30.346;2022-09-27T02:56:00;101064.78;;;9.59;100.00
66021;BME280;52789;59.980;30.346;2022-09-27T03:01:32;101063.78;;;9.60;100.00
66021;BME280;52789;59.980;30.346;2022-09-27T03:06:34;101059.84;;;9.65;100.00
66021;BME280;52789;59.980;30.346;2022-09-27T03:09:01;101049.34;;;9.63;100.00
66021;BME280;52789;59.980;30.346;2022-09-27T03:11:27;101045.41;;;9.67;100.00
66021;BME280;52789;59.980;30.346;2022-09-27T03:13:52;101047.53;;;9.63;100.00
66021;BME280;52789;59.980;30.346;2022-09-27T03:16:18;101056.34;;;9.64;100.00
66021;BME280;52789;59.980;30.346;2022-09-27T03:18:44;101060.16;;;9.61;100.00
66021;BME280;52789;59.980;30.346;2022-09-27T03:21:09;101068.81;;;9.63;100.00
66021;BME280;52789;59.980;30.346;2022-09-27T03:23:35;101061.44;;;9.57;100.00
66021;BME280;52789;59.980;30.346;2022-09-27T03:26:00;101056.28;;;9.56;100.00
66021;BME280;52789;59.980;30.346;2022-09-27T03:28:26;101052.06;;;9.53;100.00
66021;BME280;52789;59.980;30.346;2022-09-27T03:30:53;101063.94;;;9.59;100.00
66021;BME280;52789;59.980;30.346;2022-09-27T03:33:21;101066.44;;;9.60;100.00
66021;BME280;52789;59.980;30.346;2022-09-27T03:35:46;101074.72;;;9.57;100.00
66021;BME280;52789;59.980;30.346;2022-09-27T03:38:12;101061.03;;;9.52;100.00
66021;BME280;52789;59.980;30.346;2022-09-27T03:40:38;101063.00;;;9.50;100.00
66021;BME280;52789;59.980;30.346;2022-09-27T03:43:03;101060.78;;;9.46;100.00
66021;BME280;52789;59.980;30.346;2022-09-27T03:45:31;101065.94;;;9.47;100.00
66021;BME280;52789;59.980;30.346;2022-09-27T03:47:56;101067.78;;;9.47;100.00
66021;BME280;52789;59.980;30.346;2022-09-27T03:50:22;101068.91;;;9.44;100.00
66021;BME280;52789;59.980;30.346;2022-09-27T03:52:47;101070.56;;;9.55;100.00
66021;BME280;52789;59.980;30.346;2022-09-27T03:55:13;101074.88;;;9.56;100.00
66021;BME280;52789;59.980;30.346;2022-09-27T03:57:43;101076.69;;;9.55;100.00
66021;BME280;52789;59.980;30.346;2022-09-27T04:00:09;101080.34;;;9.54;100.00
66021;BME280;52789;59.980;30.346;2022-09-27T04:02:35;101078.78;;;9.52;100.00
66021;BME280;52789;59.980;30.346;2022-09-27T04:05:00;101065.09;;;9.56;100.00
66021;BME280;52789;59.980;30.346;2022-09-27T04:07:26;101080.44;;;9.62;100.00
66021;BME280;52789;59.980;30.346;2022-09-27T04:09:51;101087.56;;;9.62;100.00
66021;BME280;52789;59.980;30.346;2022-09-27T04:15:56;101083.47;;;9.68;100.00
66021;BME280;52789;59.980;30.346;2022-09-27T04:18:22;101088.66;;;9.69;100.00
66021;BME280;52789;59.980;30.346;2022-09-27T04:20:47;101069.13;;;9.60;100.00
66021;BME280;52789;59.980;30.346;2022-09-27T04:23:13;101077.56;;;9.74;100.00
66021;BME280;52789;59.980;30.346;2022-09-27T04:25:38;101071.84;;;9.69;100.00
66021;BME280;52789;59.980;30.346;2022-09-27T04:28:04;101081.19;;;9.73;100.00
66021;BME280;52789;59.980;30.346;2022-09-27T04:30:30;101044.78;;;9.55;100.00
66021;BME280;52789;59.980;30.346;2022-09-27T04:32:56;101079.63;;;9.80;100.00
66021;BME280;52789;59.980;30.346;2022-09-27T04:35:24;101088.84;;;9.85;100.00
66021;BME280;52789;59.980;30.346;2022-09-27T04:38:11;101054.53;;;9.65;100.00
66021;BME280;52789;59.980;30.346;2022-09-27T04:40:38;101083.06;;;9.90;100.00
66021;BME280;52789;59.980;30.346;2022-09-27T04:43:04;101076.47;;;9.94;100.00
66021;BME280;52789;59.980;30.346;2022-09-27T04:45:29;101087.63;;;9.98;100.00
66021;BME280;52789;59.980;30.346;2022-09-27T04:47:55;101082.31;;;9.98;100.00
66021;BME280;52789;59.980;30.346;2022-09-27T04:50:21;101079.78;;;9.96;100.00
66021;BME280;52789;59.980;30.346;2022-09-27T04:52:53;101077.44;;;9.93;100.00
66021;BME280;52789;59.980;30.346;2022-09-27T04:55:20;101099.88;;;10.08;100.00
66021;BME280;52789;59.980;30.346;2022-09-27T04:57:47;101087.84;;;10.04;100.00
66021;BME280;52789;59.980;30.346;2022-09-27T05:00:13;101090.38;;;10.06;100.00
66021;BME280;52789;59.980;30.346;2022-09-27T05:02:43;101085.28;;;10.12;100.00
66021;BME280;52789;59.980;30.346;2022-09-27T05:05:10;101076.16;;;10.15;100.00
66021;BME280;52789;59.980;30.346;2022-09-27T05:07:36;101079.22;;;10.20;100.00
66021;BME280;52789;59.980;30.346;2022-09-27T05:10:03;101082.44;;;10.23;100.00
66021;BME280;52789;59.980;30.346;2022-09-27T05:12:29;101089.72;;;10.21;100.00
66021;BME280;52789;59.980;30.346;2022-09-27T05:14:54;101086.66;;;10.16;100.00
66021;BME280;52789;59.980;30.346;2022-09-27T05:17:20;101055.69;;;9.98;100.00
66021;BME280;52789;59.980;30.346;2022-09-27T05:19:47;101093.38;;;10.20;100.00
66021;BME280;52789;59.980;30.346;2022-09-27T05:22:13;101097.47;;;10.33;100.00
66021;BME280;52789;59.980;30.346;2022-09-27T05:24:39;101095.19;;;10.38;100.00
66021;BME280;52789;59.980;30.346;2022-09-27T05:27:15;101099.25;;;10.42;100.00
66021;BME280;52789;59.980;30.346;2022-09-27T05:29:49;101100.22;;;10.41;100.00
66021;BME280;52789;59.980;30.346;2022-09-27T05:32:15;101086.75;;;10.42;100.00
66021;BME280;52789;59.980;30.346;2022-09-27T05:34:41;101098.63;;;10.48;100.00
66021;BME280;52789;59.980;30.346;2022-09-27T05:37:07;101093.97;;;10.50;100.00
66021;BME280;52789;59.980;30.346;2022-09-27T05:39:32;101103.63;;;10.51;100.00
66021;BME280;52789;59.980;30.346;2022-09-27T05:41:58;101102.66;;;10.52;100.00
66021;BME280;52789;59.980;30.346;2022-09-27T05:44:27;101100.97;;;10.51;100.00
66021;BME280;52789;59.980;30.346;2022-09-27T05:46:52;101102.66;;;10.52;100.00
66021;BME280;52789;59.980;30.346;2022-09-27T05:49:18;101097.22;;;10.62;99.82
66021;BME280;52789;59.980;30.346;2022-09-27T05:51:44;101103.00;;;10.75;99.57
66021;BME280;52789;59.980;30.346;2022-09-27T05:54:10;101101.22;;;10.83;98.63
66021;BME280;52789;59.980;30.346;2022-09-27T05:56:35;101106.97;;;10.97;97.94
66021;BME280;52789;59.980;30.346;2022-09-27T05:59:02;101106.97;;;10.97;96.96
66021;BME280;52789;59.980;30.346;2022-09-27T06:01:29;101113.50;;;11.02;97.22
66021;BME280;52789;59.980;30.346;2022-09-27T06:03:57;101083.03;;;10.79;96.53
66021;BME280;52789;59.980;30.346;2022-09-27T06:06:23;101111.00;;;11.01;96.59
66021;BME280;52789;59.980;30.346;2022-09-27T06:08:48;101109.03;;;11.03;96.76
66021;BME280;52789;59.980;30.346;2022-09-27T06:11:16;101116.75;;;11.14;95.94
66021;BME280;52789;59.980;30.346;2022-09-27T06:13:41;101096.53;;;11.03;95.50
66021;BME280;52789;59.980;30.346;2022-09-27T06:16:09;101110.56;;;11.13;95.33
66021;BME280;52789;59.980;30.346;2022-09-27T06:18:35;101115.00;;;11.31;94.75
66021;BME280;52789;59.980;30.346;2022-09-27T06:21:02;101116.22;;;11.44;93.82
66021;BME280;52789;59.980;30.346;2022-09-27T06:23:29;101120.00;;;11.60;92.74
66021;BME280;52789;59.980;30.346;2022-09-27T06:26:04;101124.63;;;11.92;90.90
66021;BME280;52789;59.980;30.346;2022-09-27T06:28:33;101122.53;;;12.20;89.21
66021;BME280;52789;59.980;30.346;2022-09-27T06:31:04;101127.53;;;12.39;88.34
66021;BME280;52789;59.980;30.346;2022-09-27T06:33:33;101118.72;;;12.47;87.45
66021;BME280;52789;59.980;30.346;2022-09-27T06:36:03;101123.53;;;12.43;87.35
66021;BME280;52789;59.980;30.346;2022-09-27T06:38:30;101125.53;;;12.33;87.53
66021;BME280;52789;59.980;30.346;2022-09-27T06:41:03;101132.22;;;12.37;87.68
66021;BME280;52789;59.980;30.346;2022-09-27T06:43:34;101125.88;;;12.38;86.90
66021;BME280;52789;59.980;30.346;2022-09-27T06:46:00;101125.22;;;12.36;87.05
66021;BME280;52789;59.980;30.346;2022-09-27T06:48:31;101119.53;;;12.39;87.01
66021;BME280;52789;59.980;30.346;2022-09-27T06:50:57;101122.56;;;12.44;85.58
66021;BME280;52789;59.980;30.346;2022-09-27T06:53:24;101118.88;;;12.37;84.98
66021;BME280;52789;59.980;30.346;2022-09-27T06:55:50;101129.56;;;12.45;85.22
66021;BME280;52789;59.980;30.346;2022-09-27T06:58:17;101128.75;;;12.45;85.69
66021;BME280;52789;59.980;30.346;2022-09-27T07:01:01;101128.22;;;12.33;86.06
66021;BME280;52789;59.980;30.346;2022-09-27T07:03:29;101139.88;;;12.24;86.18
66021;BME280;52789;59.980;30.346;2022-09-27T07:06:04;101139.06;;;12.23;86.21
66021;BME280;52789;59.980;30.346;2022-09-27T07:08:30;101126.53;;;12.24;86.73
66021;BME280;52789;59.980;30.346;2022-09-27T07:11:01;101125.53;;;12.41;85.22
66021;BME280;52789;59.980;30.346;2022-09-27T07:13:28;101138.09;;;12.49;84.39
66021;BME280;52789;59.980;30.346;2022-09-27T07:15:57;101137.41;;;12.38;83.89
66021;BME280;52789;59.980;30.346;2022-09-27T07:18:23;101134.53;;;12.16;85.21
66021;BME280;52789;59.980;30.346;2022-09-27T07:20:48;101148.00;;;12.06;85.35
66021;BME280;52789;59.980;30.346;2022-09-27T07:23:15;101129.13;;;11.91;86.56
66021;BME280;52789;59.980;30.346;2022-09-27T07:25:41;101150.88;;;12.13;86.00
66021;BME280;52789;59.980;30.346;2022-09-27T07:28:13;101142.00;;;12.12;84.97
66021;BME280;52789;59.980;30.346;2022-09-27T07:30:38;101151.91;;;12.20;85.23
66021;BME280;52789;59.980;30.346;2022-09-27T07:33:05;101136.03;;;12.18;84.85
66021;BME280;52789;59.980;30.346;2022-09-27T07:35:31;101145.56;;;12.21;85.06
66021;BME280;52789;59.980;30.346;2022-09-27T07:41:22;101150.66;;;11.98;84.65
66021;BME280;52789;59.980;30.346;2022-09-27T07:43:48;101141.75;;;11.81;85.12
66021;BME280;52789;59.980;30.346;2022-09-27T07:46:13;101150.44;;;11.83;84.76
66021;BME280;52789;59.980;30.346;2022-09-27T07:48:39;101146.94;;;11.83;84.68
66021;BME280;52789;59.980;30.346;2022-09-27T07:51:05;101132.38;;;11.77;84.23
66021;BME280;52789;59.980;30.346;2022-09-27T07:53:32;101157.84;;;12.05;84.25
66021;BME280;52789;59.980;30.346;2022-09-27T07:55:58;101160.75;;;12.20;82.20
66021;BME280;52789;59.980;30.346;2022-09-27T07:58:23;101157.25;;;12.36;79.95
66021;BME280;52789;59.980;30.346;2022-09-27T08:00:49;101149.28;;;12.44;79.89
66021;BME280;52789;59.980;30.346;2022-09-27T08:03:16;101156.97;;;12.47;79.38
66021;BME280;52789;59.980;30.346;2022-09-27T08:05:45;101161.59;;;12.37;79.69
66021;BME280;52789;59.980;30.346;2022-09-27T08:08:12;101152.41;;;12.31;80.50
66021;BME280;52789;59.980;30.346;2022-09-27T08:10:38;101154.25;;;12.39;81.83
66021;BME280;52789;59.980;30.346;2022-09-27T08:13:09;101157.78;;;12.48;82.11
66021;BME280;52789;59.980;30.346;2022-09-27T08:15:35;101154.78;;;12.51;81.68
66021;BME280;52789;59.980;30.346;2022-09-27T08:18:02;101166.66;;;12.56;81.62
66021;BME280;52789;59.980;30.346;2022-09-27T08:20:28;101159.47;;;12.57;81.42
66021;BME280;52789;59.980;30.346;2022-09-27T08:22:53;101167.66;;;12.63;80.59
66021;BME280;52789;59.980;30.346;2022-09-27T08:25:19;101152.94;;;12.67;80.08
66021;BME280;52789;59.980;30.346;2022-09-27T08:27:57;101147.78;;;12.66;80.17
66021;BME280;52789;59.980;30.346;2022-09-27T08:30:24;101157.63;;;12.65;80.12
66021;BME280;52789;59.980;30.346;2022-09-27T08:32:55;101159.13;;;12.68;80.34
66021;BME280;52789;59.980;30.346;2022-09-27T08:35:20;101164.97;;;12.63;79.15
66021;BME280;52789;59.980;30.346;2022-09-27T08:37:57;101167.84;;;12.78;79.44
66021;BME280;52789;59.980;30.346;2022-09-27T08:40:50;101162.66;;;12.85;78.64
66021;BME280;52789;59.980;30.346;2022-09-27T08:48:36;101175.00;;;12.94;77.63
66021;BME280;52789;59.980;30.346;2022-09-27T08:51:05;101166.47;;;12.90;77.02
66021;BME280;52789;59.980;30.346;2022-09-27T08:53:50;101172.81;;;12.97;77.17
66021;BME280;52789;59.980;30.346;2022-09-27T08:56:17;101159.97;;;13.17;75.83
66021;BME280;52789;59.980;30.346;2022-09-27T08:59:05;101153.19;;;13.54;75.25
66021;BME280;52789;59.980;30.346;2022-09-27T09:01:39;101152.63;;;13.75;72.30
66021;BME280;52789;59.980;30.346;2022-09-27T09:04:06;101157.91;;;13.91;71.42
66021;BME280;52789;59.980;30.346;2022-09-27T09:09:47;101162.75;;;13.95;70.29
66021;BME280;52789;59.980;30.346;2022-09-27T09:15:13;101153.28;;;14.08;69.85
66021;BME280;52789;59.980;30.346;2022-09-27T09:20:37;101161.09;;;13.86;69.11
66021;BME280;52789;59.980;30.346;2022-09-27T09:29:06;101151.56;;;13.84;67.82
66021;BME280;52789;59.980;30.346;2022-09-27T09:34:35;101153.75;;;13.88;66.46
66021;BME280;52789;59.980;30.346;2022-09-27T09:37:11;101147.94;;;14.08;66.50
66021;BME280;52789;59.980;30.346;2022-09-27T09:42:21;101148.75;;;14.47;62.93
66021;BME280;52789;59.980;30.346;2022-09-27T09:45:25;101151.72;;;14.52;58.60
66021;BME280;52789;59.980;30.346;2022-09-27T09:48:00;101158.41;;;14.71;59.85
66021;BME280;52789;59.980;30.346;2022-09-27T09:50:30;101175.03;;;14.67;58.54
66021;BME280;52789;59.980;30.346;2022-09-27T09:53:18;101160.16;;;14.64;51.75
66021;BME280;52789;59.980;30.346;2022-09-27T09:55:59;101162.03;;;14.33;50.61
66021;BME280;52789;59.980;30.346;2022-09-27T09:58:59;101171.16;;;14.15;50.75
66021;BME280;52789;59.980;30.346;2022-09-27T10:01:44;101163.09;;;13.92;50.86
66021;BME280;52789;59.980;30.346;2022-09-27T10:04:23;101166.88;;;13.67;51.36
66021;BME280;52789;59.980;30.346;2022-09-27T10:06:51;101164.19;;;13.67;53.54
66021;BME280;52789;59.980;30.346;2022-09-27T10:09:22;101161.84;;;14.03;53.89
66021;BME280;52789;59.980;30.346;2022-09-27T10:11:49;101163.63;;;14.19;51.38
66021;BME280;52789;59.980;30.346;2022-09-27T10:14:18;101158.88;;;14.29;52.40
66021;BME280;52789;59.980;30.346;2022-09-27T10:17:02;101153.25;;;14.47;50.97
66021;BME280;52789;59.980;30.346;2022-09-27T10:19:30;101151.00;;;14.59;50.74
66021;BME280;52789;59.980;30.346;2022-09-27T10:22:01;101133.44;;;14.71;49.06
66021;BME280;52789;59.980;30.346;2022-09-27T10:24:27;101150.94;;;15.04;48.39
66021;BME280;52789;59.980;30.346;2022-09-27T10:26:57;101151.22;;;15.24;49.05
66021;BME280;52789;59.980;30.346;2022-09-27T10:29:31;101135.81;;;15.41;48.52
66021;BME280;52789;59.980;30.346;2022-09-27T10:32:00;101147.44;;;15.48;48.74
66021;BME280;52789;59.980;30.346;2022-09-27T10:34:39;101157.28;;;15.03;47.91
66021;BME280;52789;59.980;30.346;2022-09-27T10:39:38;101151.88;;;14.51;49.16
66021;BME280;52789;59.980;30.346;2022-09-27T10:44:47;101152.31;;;14.32;51.32
66021;BME280;52789;59.980;30.346;2022-09-27T10:47:17;101163.22;;;14.30;51.80
66021;BME280;52789;59.980;30.346;2022-09-27T10:49:47;101145.88;;;14.18;52.04
66021;BME280;52789;59.980;30.346;2022-09-27T10:52:16;101149.16;;;14.28;52.94
66021;BME280;52789;59.980;30.346;2022-09-27T10:55:34;101156.59;;;14.41;55.50
66021;BME280;52789;59.980;30.346;2022-09-27T10:57:40;101159.53;;;14.31;52.01
66021;BME280;52789;59.980;30.346;2022-09-27T11:00:23;101154.88;;;14.25;52.63
66021;BME280;52789;59.980;30.346;2022-09-27T11:02:54;101162.47;;;14.13;52.28
66021;BME280;52789;59.980;30.346;2022-09-27T11:07:59;101160.91;;;13.96;54.07
66021;BME280;52789;59.980;30.346;2022-09-27T11:10:34;101160.13;;;13.79;53.86
66021;BME280;52789;59.980;30.346;2022-09-27T11:27:09;101174.91;;;13.67;52.84
66021;BME280;52789;59.980;30.346;2022-09-27T11:38:29;101160.31;;;14.09;53.51
66021;BME280;52789;59.980;30.346;2022-09-27T11:46:31;101159.47;;;14.08;55.10
66021;BME280;52789;59.980;30.346;2022-09-27T11:49:27;101145.44;;;14.06;53.54
66021;BME280;52789;59.980;30.346;2022-09-27T11:52:26;101154.97;;;14.09;52.12
66021;BME280;52789;59.980;30.346;2022-09-27T11:57:46;101154.75;;;13.79;51.51
66021;BME280;52789;59.980;30.346;2022-09-27T12:00:19;101150.25;;;13.80;53.92
66021;BME280;52789;59.980;30.346;2022-09-27T12:03:20;101159.47;;;13.77;54.12
66021;BME280;52789;59.980;30.346;2022-09-27T12:06:12;101150.94;;;13.74;50.89
66021;BME280;52789;59.980;30.346;2022-09-27T12:08:47;101150.72;;;13.83;51.01
66021;BME280;52789;59.980;30.346;2022-09-27T12:11:22;101142.97;;;13.97;53.50
66021;BME280;52789;59.980;30.346;2022-09-27T12:16:28;101139.66;;;13.94;55.02
66021;BME280;52789;59.980;30.346;2022-09-27T12:18:56;101138.34;;;13.82;52.32
66021;BME280;52789;59.980;30.346;2022-09-27T12:21:23;101147.75;;;13.78;52.54
66021;BME280;52789;59.980;30.346;2022-09-27T12:23:52;101145.41;;;13.75;53.65
66021;BME280;52789;59.980;30.346;2022-09-27T12:26:37;101155.13;;;13.76;54.97
66021;BME280;52789;59.980;30.346;2022-09-27T12:29:17;101146.38;;;13.82;54.43
66021;BME280;52789;59.980;30.346;2022-09-27T12:31:59;101147.91;;;13.77;55.95
66021;BME280;52789;59.980;30.346;2022-09-27T12:34:47;101149.75;;;13.76;54.79
66021;BME280;52789;59.980;30.346;2022-09-27T12:37:51;101145.72;;;13.80;54.99
66021;BME280;52789;59.980;30.346;2022-09-27T12:40:27;101142.38;;;13.78;54.81
66021;BME280;52789;59.980;30.346;2022-09-27T12:51:16;101131.41;;;13.65;53.27
66021;BME280;52789;59.980;30.346;2022-09-27T12:56:45;101139.53;;;13.41;56.25
66021;BME280;52789;59.980;30.346;2022-09-27T13:01:51;101138.06;;;13.14;55.55
66021;BME280;52789;59.980;30.346;2022-09-27T13:07:36;101137.72;;;13.00;56.29
66021;BME280;52789;59.980;30.346;2022-09-27T13:10:21;101135.22;;;12.99;57.92
66021;BME280;52789;59.980;30.346;2022-09-27T13:12:54;101117.00;;;12.94;57.01
66021;BME280;52789;59.980;30.346;2022-09-27T13:17:56;101120.69;;;12.93;57.92
66021;BME280;52789;59.980;30.346;2022-09-27T13:22:53;101135.94;;;12.77;55.56
66021;BME280;52789;59.980;30.346;2022-09-27T13:25:56;101136.06;;;12.67;57.00
66021;BME280;52789;59.980;30.346;2022-09-27T13:31:11;101131.09;;;12.48;57.94
66021;BME280;52789;59.980;30.346;2022-09-27T13:33:52;101126.22;;;12.35;57.33
66021;BME280;52789;59.980;30.346;2022-09-27T13:36:26;101133.22;;;12.28;57.53
66021;BME280;52789;59.980;30.346;2022-09-27T13:46:55;101137.00;;;12.01;59.83
66021;BME280;52789;59.980;30.346;2022-09-27T13:49:35;101137.16;;;11.99;59.53
66021;BME280;52789;59.980;30.346;2022-09-27T13:52:21;101132.00;;;12.06;60.62
66021;BME280;52789;59.980;30.346;2022-09-27T13:55:00;101134.53;;;12.16;59.87
66021;BME280;52789;59.980;30.346;2022-09-27T13:57:45;101128.72;;;12.28;58.27
66021;BME280;52789;59.980;30.346;2022-09-27T14:00:24;101135.22;;;12.42;58.69
66021;BME280;52789;59.980;30.346;2022-09-27T14:05:39;101126.72;;;12.71;60.67
66021;BME280;52789;59.980;30.346;2022-09-27T14:08:31;101128.06;;;12.91;58.18
66021;BME280;52789;59.980;30.346;2022-09-27T14:11:00;101117.22;;;12.85;57.87
66021;BME280;52789;59.980;30.346;2022-09-27T14:13:35;101132.56;;;12.91;57.51
66021;BME280;52789;59.980;30.346;2022-09-27T14:16:33;101120.91;;;12.76;58.84
66021;BME280;52789;59.980;30.346;2022-09-27T14:19:00;101123.91;;;12.73;56.97
66021;BME280;52789;59.980;30.346;2022-09-27T14:21:35;101140.28;;;12.78;58.33
66021;BME280;52789;59.980;30.346;2022-09-27T14:27:12;101137.28;;;12.73;59.81
66021;BME280;52789;59.980;30.346;2022-09-27T14:29:50;101138.91;;;12.65;58.26
66021;BME280;52789;59.980;30.346;2022-09-27T14:32:24;101139.59;;;12.59;58.94
66021;BME280;52789;59.980;30.346;2022-09-27T14:35:15;101143.94;;;12.60;59.00
66021;BME280;52789;59.980;30.346;2022-09-27T14:38:01;101135.59;;;12.47;60.97
66021;BME280;52789;59.980;30.346;2022-09-27T14:40:27;101140.94;;;12.47;61.40
66021;BME280;52789;59.980;30.346;2022-09-27T14:43:02;101129.72;;;12.35;62.11
66021;BME280;52789;59.980;30.346;2022-09-27T14:45:38;101141.56;;;12.41;62.66
66021;BME280;52789;59.980;30.346;2022-09-27T14:48:51;101158.25;;;12.35;65.18
66021;BME280;52789;59.980;30.346;2022-09-27T14:53:43;101144.72;;;12.20;69.42
66021;BME280;52789;59.980;30.346;2022-09-27T14:56:18;101155.19;;;12.14;72.52
66021;BME280;52789;59.980;30.346;2022-09-27T14:58:48;101150.53;;;12.07;73.37
66021;BME280;52789;59.980;30.346;2022-09-27T15:01:22;101156.69;;;12.08;74.34
66021;BME280;52789;59.980;30.346;2022-09-27T15:03:48;101128.63;;;11.88;74.94
66021;BME280;52789;59.980;30.346;2022-09-27T15:06:18;101150.66;;;11.98;76.21
66021;BME280;52789;59.980;30.346;2022-09-27T15:08:45;101143.47;;;11.90;76.16
66021;BME280;52789;59.980;30.346;2022-09-27T15:11:14;101133.06;;;11.79;75.94
66021;BME280;52789;59.980;30.346;2022-09-27T15:16:57;101142.44;;;11.83;75.49
66021;BME280;52789;59.980;30.346;2022-09-27T15:19:29;101118.50;;;11.65;75.05
66021;BME280;52789;59.980;30.346;2022-09-27T15:21:55;101145.03;;;11.75;74.89
66021;BME280;52789;59.980;30.346;2022-09-27T15:24:45;101153.72;;;11.77;75.13
66021;BME280;52789;59.980;30.346;2022-09-27T15:27:14;101156.56;;;11.75;74.65
66021;BME280;52789;59.980;30.346;2022-09-27T15:29:47;101150.53;;;11.65;74.87
66021;BME280;52789;59.980;30.346;2022-09-27T15:32:15;101153.00;;;11.59;75.80
66021;BME280;52789;59.980;30.346;2022-09-27T15:34:41;101158.94;;;11.53;76.68
66021;BME280;52789;59.980;30.346;2022-09-27T15:37:26;101163.75;;;11.49;77.79
66021;BME280;52789;59.980;30.346;2022-09-27T15:39:51;101149.19;;;11.35;78.22
66021;BME280;52789;59.980;30.346;2022-09-27T15:42:17;101137.78;;;11.25;78.97
66021;BME280;52789;59.980;30.346;2022-09-27T15:44:52;101159.03;;;11.35;79.88
66021;BME280;52789;59.980;30.346;2022-09-27T15:52:52;101151.44;;;11.22;81.56
66021;BME280;52789;59.980;30.346;2022-09-27T15:55:25;101156.25;;;11.18;82.67
66021;BME280;52789;59.980;30.346;2022-09-27T16:00:24;101130.25;;;10.95;83.31
66021;BME280;52789;59.980;30.346;2022-09-27T16:02:53;101170.41;;;11.19;84.20
66021;BME280;52789;59.980;30.346;2022-09-27T16:05:18;101158.72;;;11.12;84.93